Date,TemperatureHighF,TemperatureAvgF,TemperatureLowF,DewpointHighF,DewpointAvgF,DewpointLowF,HumidityHigh,HumidityAvg,HumidityLow,PressureMaxIn,PressureMinIn,WindSpeedMaxMPH,WindSpeedAvgMPH,GustSpeedMaxMPH,PrecipitationSumIn
2014-1-27,43,33,26,-100,-100,-100,0,0,100,30.28,29.81,23,13,26,0.00
2014-1-28,33,25,17,-100,-100,-100,0,0,100,30.48,30.25,17,10,17,0.00
2014-1-29,54,32,8,-100,-100,-100,0,0,100,30.41,30.09,13,6,15,0.00
2014-1-30,69,46,31,-100,-100,-100,0,0,100,30.08,29.72,15,7,22,0.00
2014-1-31,87,66,42,-100,-100,-100,0,0,100,29.82,29.65,11,6,12,0.00
2014-2-1,64,54,41,-100,-100,-100,0,0,100,29.92,29.66,13,6,13,0.00
2014-2-2,43,31,29,-100,-100,-100,0,0,100,30.24,29.91,20,10,20,0.09
2014-3-23,53,46,37,-100,-100,-100,0,0,100,30.32,30.04,20,9,20,0.06
2014-3-24,71,51,33,-100,-100,-100,0,0,100,30.20,29.93,8,3,8,0.06
2014-3-25,67,54,36,-100,-100,-100,0,0,100,30.31,30.05,15,8,17,0.00
2014-3-26,64,56,45,-100,-100,-100,0,0,100,30.08,29.77,18,10,22,0.02
2014-3-27,90,69,57,-100,-100,-100,0,0,100,29.78,29.62,15,8,16,0.06
2014-3-28,87,64,52,-100,-100,-100,0,0,100,30.03,29.70,18,6,18,0.09
2014-3-29,76,57,39,-100,-100,-100,0,0,100,30.28,30.04,13,6,14,0.10
2014-5-13,59,51,46,-100,-100,-100,0,0,100,30.27,30.18,13,4,13,0.02
2014-5-14,75,58,35,-100,-100,-100,0,0,100,30.29,30.12,15,6,23,0.14
2014-5-15,88,62,34,-100,-100,-100,0,0,100,30.22,29.99,9,4,9,0.14
2014-5-16,98,76,60,-100,-100,-100,0,0,100,30.04,29.78,12,8,18,0.00
2014-5-17,98,77,62,-100,-100,-100,0,0,100,29.89,29.72,14,7,16,0.00
2014-5-18,90,77,60,-100,-100,-100,0,0,100,29.96,29.78,15,9,19,0.00
2014-5-27,90,75,61,-100,-100,-100,0,0,100,29.89,29.76,10,4,11,1.03
2014-5-28,84,73,59,-100,-100,-100,0,0,100,29.93,29.82,14,5,14,1.03
2014-5-29,87,77,60,-100,-100,-100,0,0,100,29.91,29.78,8,3,11,0.00
2014-5-30,95,77,61,-100,-100,-100,0,0,100,29.86,29.75,6,2,6,0.00
2014-5-31,95,76,64,-100,-100,-100,0,0,100,29.90,29.78,8,3,8,0.00
2014-6-1,91,82,66,-100,-100,-100,0,0,100,29.88,29.71,11,5,11,0.00
2014-6-2,91,82,72,-100,-100,-100,0,0,100,29.88,29.74,15,9,15,0.00
2014-6-3,89,80,68,-100,-100,-100,0,0,100,29.93,29.79,14,7,14,0.00
2014-6-4,95,83,70,-100,-100,-100,0,0,100,29.82,29.66,13,7,15,0.00
2014-6-5,95,87,70,-100,-100,-100,0,0,100,29.73,29.64,14,9,15,0.00
2014-6-6,90,81,70,-100,-100,-100,0,0,100,29.83,29.70,17,8,18,0.00
2014-6-7,91,80,72,-100,-100,-100,0,0,100,29.87,29.69,20,10,20,0.00
2014-6-8,82,74,64,-100,-100,-100,0,0,100,29.91,29.68,15,8,17,0.07
2014-6-9,80,70,58,-100,-100,-100,0,0,100,29.85,29.62,20,6,20,0.07
2014-6-10,87,74,53,-100,-100,-100,0,0,100,29.93,29.77,9,4,9,0.07
2014-6-11,97,80,60,-100,-100,-100,0,0,100,29.83,29.62,14,6,16,0.00
2014-6-18,89,87,84,69,67,65,57,51,48,29.87,29.79,12,9,21,0.00
2014-6-19,84,78,74,69,67,62,82,70,47,30.01,29.88,12,6,21,0.00
2014-6-20,80,75,72,67,66,62,80,72,63,30.07,29.97,7,4,15,0.00
2014-6-21,78,67,67,71,56,-100,94,80,72,30.03,29.88,8,5,16,0.39
2014-6-22,89,77,70,72,4,-100,93,55,84,29.91,29.86,6,3,7,0.06
2014-6-23,89,77,67,-100,-100,-100,0,0,100,0.00,40.00,15,7,15,0.09
2014-6-24,88,76,71,-100,-100,-100,0,0,100,0.00,40.00,7,3,7,0.09
2014-6-25,97,80,66,-100,-100,-100,0,0,100,0.00,40.00,5,2,6,0.00
2014-6-26,82,74,67,-100,-100,-100,0,0,100,0.00,40.00,8,5,11,0.00
2014-6-27,91,84,74,69,22,-100,81,43,47,29.81,29.67,14,9,24,0.00
2014-6-28,93,86,79,71,-3,-100,53,29,47,29.78,29.75,21,10,22,0.00
2014-6-29,94,85,75,-100,-100,-100,0,0,100,0.00,40.00,14,9,17,0.00
2014-6-30,96,84,75,-100,-100,-100,0,0,100,0.00,40.00,14,10,15,0.00
2014-7-1,96,84,73,-100,-100,-100,0,0,100,0.00,40.00,10,7,14,0.00
2014-7-2,95,84,72,-100,-100,-100,0,0,100,0.00,40.00,12,8,16,0.00
2014-7-3,92,80,67,64,-88,-100,50,4,50,30.02,30.02,14,6,18,0.00
2014-7-4,94,82,67,67,35,-100,88,41,25,30.16,30.04,10,5,17,0.00
2014-7-5,97,84,68,-100,-100,-100,0,0,100,0.00,40.00,11,6,12,0.00
2014-7-6,92,81,68,-100,-100,-100,0,0,100,0.00,40.00,8,4,8,0.00
2014-7-7,93,83,73,-100,-100,-100,0,0,100,0.00,40.00,12,6,15,0.00
2014-7-8,96,83,68,58,-87,-100,28,2,28,29.92,29.92,9,5,10,0.00
2014-7-9,91,81,74,-100,-100,-100,0,0,100,0.00,40.00,6,5,7,0.00
2014-7-10,93,81,68,66,24,53,80,19,28,30.01,29.94,11,6,18,0.00
2014-7-11,91,82,68,-100,0,200,0,0,100,0.00,40.00,14,9,16,0.00
2014-7-12,97,76,66,-100,0,200,0,0,100,0.00,40.00,9,6,10,0.00
2014-7-13,96,79,67,-100,0,200,0,0,100,0.00,40.00,7,4,9,0.00
2014-7-14,101,85,68,-100,0,200,0,0,100,0.00,40.00,13,4,15,0.00
2014-7-15,88,77,70,68,40,65,82,39,49,30.02,29.95,9,4,16,0.09
2014-7-16,90,73,65,68,25,67,94,34,90,30.00,29.84,12,6,25,1.74
2014-7-17,79,73,70,-100,0,200,0,0,100,0.00,40.00,11,6,11,1.00
2014-7-18,77,72,67,-100,0,200,0,0,100,0.00,40.00,9,6,9,0.66
2014-7-19,86,70,63,-100,0,200,0,0,100,0.00,40.00,9,4,9,0.00
2014-7-20,92,82,71,-100,0,200,0,0,100,0.00,40.00,9,6,9,0.00
2014-7-21,97,85,74,69,6,69,45,4,45,29.92,29.92,10,5,14,0.00
2014-7-22,90,82,72,73,30,69,90,35,72,30.02,29.98,6,3,8,0.00
2014-7-23,93,85,72,70,23,66,60,17,41,30.09,30.04,7,4,11,0.00
2014-7-24,97,85,71,-100,0,200,0,0,100,0.00,40.00,9,3,9,0.00
2014-7-25,98,85,66,-100,0,200,0,0,100,0.00,40.00,8,3,8,0.00
2014-7-26,97,74,71,-100,0,200,0,0,100,0.00,40.00,10,6,10,0.00
2014-7-27,85,80,76,-100,0,200,0,0,100,0.00,40.00,9,6,9,0.00
2014-7-28,94,81,70,67,29,62,56,20,36,30.08,29.99,13,3,21,0.00
2014-7-29,96,82,71,69,37,65,84,43,70,30.09,30.05,18,4,18,0.00
2014-7-30,100,87,75,-100,0,200,0,0,100,0.00,40.00,11,7,13,0.00
2014-7-31,81,66,73,-100,0,200,0,0,100,0.00,40.00,14,8,14,0.00
2014-8-1,85,78,65,-100,0,200,0,0,100,0.00,40.00,7,3,9,0.00
2014-8-2,90,74,64,63,16,54,87,17,38,30.09,30.01,7,4,7,0.00
2014-8-3,90,79,64,64,51,53,81,45,29,30.11,29.98,7,3,12,0.00
2014-8-4,93,82,63,59,12,59,75,15,72,30.06,30.05,7,3,9,0.00
2014-8-5,97,81,68,-100,0,200,0,0,100,0.00,40.00,8,2,9,0.00
2014-8-6,101,88,72,54,3,54,35,2,35,29.85,29.85,7,4,9,0.00
2014-8-7,102,93,70,65,5,65,32,2,32,29.86,29.86,10,5,10,0.00
2014-8-8,104,93,74,55,4,55,25,2,25,29.78,29.78,6,4,10,0.00
2014-8-11,94,82,73,-100,0,200,0,0,100,0.00,40.00,11,4,11,0.01
2014-8-12,94,84,69,-100,0,200,0,0,100,0.00,40.00,10,4,14,0.01
2014-8-13,99,82,62,63,2,63,72,3,72,30.05,30.05,10,3,11,0.01
2014-8-14,83,75,69,57,23,57,43,17,41,29.95,29.94,6,3,11,0.00
2014-8-15,101,89,66,60,14,57,70,10,28,29.96,29.93,9,4,12,0.00
2014-8-16,97,86,77,-100,0,200,0,0,100,0.00,40.00,6,2,6,0.00
2014-8-17,90,78,70,-100,0,200,0,0,100,0.00,40.00,9,4,13,0.08
2014-8-21,81,76,73,-100,0,200,0,0,100,0.00,40.00,10,6,10,0.24
2014-8-22,96,86,73,-100,0,200,0,0,100,0.00,40.00,15,8,17,0.00
2014-8-23,93,79,71,-100,0,200,0,0,100,0.00,40.00,12,7,16,0.00
2014-8-24,96,86,73,-100,0,200,0,0,100,0.00,40.00,10,6,10,0.00
2014-8-25,98,86,71,-100,0,200,0,0,100,0.00,40.00,7,2,8,0.00
2014-8-26,99,82,68,66,8,66,55,7,54,29.97,29.97,8,3,17,0.20
2014-8-27,94,84,70,72,58,60,89,53,33,30.02,29.88,5,2,12,0.20
2014-8-28,97,83,66,-100,0,200,0,0,100,0.00,40.00,7,3,8,0.18
2014-8-29,96,80,71,-100,0,200,0,0,100,0.00,40.00,10,4,12,0.01
2014-8-30,97,77,67,-100,0,200,0,0,100,0.00,40.00,10,3,10,0.11